Date,TemperatureHighF,TemperatureAvgF,TemperatureLowF,DewpointHighF,DewpointAvgF,DewpointLowF,HumidityHigh,HumidityAvg,HumidityLow,PressureMaxIn,PressureMinIn,WindSpeedMaxMPH,WindSpeedAvgMPH,GustSpeedMaxMPH,PrecipitationSumIn
2013-1-1,43.0,39.2,31.0,42.0,37.6,27.0,96,93,87,30.19,29.99,10,3,19,0.60
2013-1-2,35.0,30.3,26.0,27.0,23.6,20.0,90,77,55,30.28,30.17,6,2,11,0.00
2013-1-3,44.0,33.8,24.0,31.0,26.5,22.0,93,76,50,30.41,30.24,6,1,11,0.00
2013-1-4,50.0,36.2,26.0,33.0,28.2,24.0,94,75,44,30.49,30.37,5,0,8,0.00
2013-1-5,46.0,38.3,29.0,38.0,31.7,27.0,94,78,59,30.38,30.24,6,1,11,0.00
2013-1-6,51.0,41.2,32.0,38.0,35.0,28.0,95,80,54,30.37,30.21,7,2,13,0.00
2013-1-7,53.0,36.9,26.0,31.0,27.4,23.0,92,72,35,30.42,30.19,7,1,13,0.00
2013-1-8,59.0,44.8,30.0,43.0,35.2,27.0,92,71,47,30.26,30.13,6,0,10,0.00
2013-1-9,56.0,53.9,52.0,54.0,51.8,44.0,97,93,72,30.33,30.18,8,2,14,0.32
2013-1-10,69.0,62.0,55.0,65.0,60.2,54.0,97,94,85,30.26,29.87,14,6,31,1.17
2013-1-11,68.0,61.9,55.0,60.0,53.9,49.0,94,76,53,30.02,29.90,11,4,20,0.16
2013-1-12,72.0,68.6,64.0,68.0,65.5,62.0,97,90,81,29.93,29.71,12,4,24,0.37
2013-1-13,71.0,43.3,32.0,65.0,41.0,28.0,95,92,81,30.25,29.70,12,5,23,2.24
2013-1-14,32.0,28.7,27.0,30.0,24.6,23.0,92,84,78,30.38,30.24,10,6,21,0.02
2013-1-15,31.0,29.0,26.0,30.0,26.5,23.0,95,90,84,30.26,30.03,10,4,17,0.00
2013-1-16,33.0,31.5,30.0,31.0,29.5,28.0,95,92,90,30.17,30.04,5,1,9,0.09
2013-1-17,47.0,38.1,33.0,38.0,32.0,28.0,93,79,63,30.45,30.11,10,2,19,0.07
2013-1-18,55.0,39.4,27.0,32.0,28.0,25.0,94,68,32,30.55,30.33,7,1,10,0.01
2013-1-19,58.0,47.2,36.0,38.0,33.2,30.0,79,60,36,30.33,30.15,10,3,20,0.00
2013-1-20,60.0,47.2,35.0,38.0,33.4,29.0,90,61,35,30.25,30.14,7,1,14,0.00
2013-1-21,42.0,35.0,27.0,30.0,21.7,17.0,81,59,38,30.34,30.15,9,3,16,0.00
2013-1-22,40.0,32.0,25.0,23.0,18.8,15.0,87,60,38,30.42,30.29,5,1,14,0.00
2013-1-23,56.0,40.4,27.0,38.0,30.0,19.0,85,67,48,30.33,30.14,5,0,12,0.00
2013-1-24,42.0,38.9,35.0,39.0,25.0,19.0,91,59,43,30.42,30.19,10,3,18,0.00
2013-1-25,48.0,39.9,34.0,44.0,33.2,21.0,94,79,45,30.23,30.01,8,2,17,0.18
2013-1-26,54.0,42.4,31.0,38.0,32.9,29.0,96,72,42,30.32,30.22,5,1,12,0.01
2013-1-27,64.0,55.1,47.0,54.0,45.0,35.0,80,69,62,30.24,30.09,9,2,19,0.00
2013-1-28,73.0,64.2,59.0,62.0,57.2,53.0,89,78,66,30.14,30.03,15,6,24,0.00
2013-1-29,76.0,68.4,61.0,65.0,60.8,58.0,92,78,59,30.04,29.40,18,7,35,0.30
2013-1-30,64.0,48.9,35.0,63.0,42.1,26.0,97,78,57,30.01,29.47,20,6,33,0.53
2013-1-31,55.0,45.8,32.0,34.0,29.7,24.0,80,55,40,30.31,30.00,10,5,22,0.00
2013-2-1,39.0,29.7,22.0,24.0,13.4,8.0,72,52,30,30.53,30.29,10,3,17,0.00
2013-2-2,52.0,38.8,27.0,36.0,29.3,18.0,86,69,48,30.29,30.12,5,1,12,0.00
2013-2-3,54.0,46.1,38.0,36.0,31.5,25.0,78,59,34,30.17,30.08,11,4,21,0.00
2013-2-4,58.0,46.5,36.0,45.0,35.2,29.0,91,67,37,30.09,29.89,8,2,19,0.07
2013-2-5,65.0,51.1,39.0,50.0,44.0,37.0,95,78,49,30.03,29.91,5,0,10,0.06
2013-2-6,63.0,50.9,39.0,44.0,41.4,37.0,96,72,48,30.19,30.02,7,1,13,0.00
2013-2-7,69.0,57.2,44.0,56.0,48.6,39.0,91,74,57,30.02,29.84,6,1,11,0.07
2013-2-8,58.0,44.8,35.0,56.0,39.7,31.0,95,82,70,30.29,29.87,14,6,27,0.45
2013-2-9,51.0,41.9,31.0,41.0,33.8,28.0,93,75,54,30.31,30.02,7,2,14,0.00
2013-2-10,61.0,55.9,51.0,58.0,48.9,38.0,95,78,55,30.02,29.72,15,6,23,0.76
2013-2-11,59.0,51.8,46.0,53.0,34.4,29.0,81,53,33,30.18,29.93,6,1,13,0.01
2013-2-12,51.0,46.6,39.0,42.0,38.0,34.0,91,73,52,30.14,29.78,9,1,15,0.01
2013-2-13,45.0,41.9,39.0,42.0,38.3,36.0,95,87,77,30.00,29.76,7,2,15,0.05
2013-2-14,62.0,48.9,37.0,41.0,37.4,35.0,94,68,38,30.04,29.97,8,3,15,0.01
2013-2-15,54.0,46.4,37.0,40.0,33.1,26.0,85,62,38,30.18,30.02,9,3,17,0.00
2013-2-16,39.0,34.8,30.0,27.0,21.3,16.0,73,58,40,30.25,30.18,9,3,15,0.00
2013-2-17,56.0,43.8,33.0,32.0,24.6,19.0,62,48,34,30.24,30.05,10,4,18,0.00
2013-2-18,58.0,51.8,45.0,52.0,43.1,32.0,93,73,51,30.06,29.73,15,7,28,0.87
2013-2-19,49.0,42.4,33.0,42.0,29.2,24.0,83,61,37,30.25,29.93,12,4,19,0.77
2013-2-20,36.0,33.3,31.0,29.0,20.2,15.0,84,59,45,30.34,30.17,6,2,13,0.00
2013-2-21,46.0,38.8,33.0,44.0,31.8,23.0,95,77,46,30.17,29.73,9,3,24,0.78
2013-2-22,50.0,42.6,37.0,42.0,38.2,33.0,96,85,65,30.06,29.85,7,1,12,0.08
2013-2-23,53.0,39.6,31.0,33.0,30.3,28.0,92,71,41,30.05,29.93,6,1,11,0.00
2013-2-24,60.0,44.5,30.0,34.0,31.2,28.0,94,64,36,30.09,29.89,7,1,13,0.00
2013-2-25,59.0,52.1,41.0,54.0,39.2,28.0,94,63,42,29.90,29.30,14,5,30,0.61
2013-2-26,55.0,45.5,42.0,53.0,39.4,34.0,94,79,69,29.79,29.31,14,6,25,0.62
2013-2-27,45.0,42.4,40.0,36.0,33.4,29.0,74,70,60,29.96,29.80,8,4,17,0.00
2013-2-28,43.0,39.8,36.0,32.0,29.1,27.0,75,65,57,30.09,29.96,8,3,16,0.00
2013-3-1,38.0,36.1,34.0,30.0,28.7,26.0,79,74,67,30.14,30.07,8,4,14,0.00
2013-3-2,35.0,32.7,31.0,31.0,26.2,23.0,95,77,65,30.23,30.12,9,4,14,0.00
2013-3-3,49.0,37.1,23.0,28.0,23.2,19.0,93,60,34,30.22,30.04,5,0,11,0.00
2013-3-4,69.0,54.5,39.0,48.0,33.4,25.0,63,46,26,30.05,29.73,12,4,22,0.00
2013-3-5,64.0,50.7,39.0,57.0,39.4,24.0,94,67,40,30.16,29.74,14,7,25,0.37
2013-3-6,46.0,38.6,34.0,31.0,25.9,23.0,85,61,49,30.34,30.16,13,4,21,0.01
2013-3-7,54.0,41.8,32.0,33.0,30.5,28.0,95,67,41,30.37,30.26,5,1,11,0.00
2013-3-8,68.0,49.1,33.0,38.0,30.5,20.0,85,55,18,30.37,30.15,6,1,11,0.00
2013-3-9,71.0,60.3,49.0,40.0,34.5,31.0,60,39,24,30.15,29.90,9,2,21,0.00
2013-3-10,65.0,58.8,52.0,58.0,50.7,40.0,96,76,42,29.93,29.72,12,5,28,0.92
2013-3-11,53.0,43.3,37.0,51.0,35.7,32.0,93,75,57,30.02,29.82,10,3,18,0.29
2013-3-12,57.0,43.3,30.0,37.0,30.0,22.0,95,65,29,30.19,30.01,6,1,13,0.00
2013-3-13,50.0,44.1,36.0,36.0,27.3,24.0,80,52,37,30.39,30.19,10,4,16,0.00
2013-3-14,64.0,46.5,31.0,39.0,30.4,24.0,92,59,28,30.40,30.15,9,2,17,0.00
2013-3-15,78.0,63.8,50.0,53.0,45.3,37.0,67,52,41,30.15,29.87,12,4,24,0.00
2013-3-16,77.0,67.6,59.0,56.0,52.9,47.0,77,60,45,29.90,29.80,11,5,21,0.00
2013-3-17,70.0,59.0,52.0,56.0,51.1,46.0,91,76,57,29.89,29.66,8,2,13,0.00
2013-3-18,68.0,55.6,45.0,62.0,51.1,42.0,94,85,69,30.02,29.64,8,2,20,0.36
2013-3-19,59.0,47.8,36.0,43.0,31.2,21.0,95,59,24,30.18,30.02,9,2,13,0.01
2013-3-20,54.0,46.7,36.0,35.0,25.9,10.0,81,47,23,30.21,30.06,12,4,24,0.01
2013-3-21,47.0,39.0,31.0,33.0,18.5,12.0,89,46,26,30.10,29.93,6,2,11,0.04
2013-3-22,46.0,41.5,34.0,44.0,39.5,31.0,95,93,89,29.98,29.85,6,2,13,0.43
2013-3-23,55.0,49.6,45.0,50.0,46.9,44.0,95,90,80,29.90,29.66,9,2,15,0.31
2013-3-24,51.0,45.9,37.0,50.0,40.6,27.0,97,83,64,29.93,29.53,14,6,28,0.37
2013-3-25,40.0,36.9,33.0,28.0,24.6,21.0,69,61,52,30.23,29.93,15,7,26,0.01
2013-3-26,47.0,38.5,32.0,28.0,26.0,23.0,79,62,43,30.34,30.22,9,4,17,0.00
2013-3-27,61.0,43.6,28.0,35.0,29.3,26.0,93,62,29,30.40,30.27,8,1,15,0.00
2013-3-28,71.0,53.3,35.0,42.0,35.3,32.0,91,57,25,30.33,30.19,6,1,11,0.00
2013-3-29,65.0,55.2,48.0,54.0,45.1,35.0,93,72,36,30.24,30.14,7,1,17,0.13
2013-3-30,58.0,53.8,49.0,57.0,51.2,-99.9,96,94,92,30.16,29.91,7,0,12,0.36
2013-3-31,63.0,57.7,50.0,60.0,54.8,48.0,98,91,75,29.95,29.85,6,1,13,0.34
2013-4-1,70.0,55.5,42.0,51.0,44.7,40.0,97,70,40,30.10,29.91,7,2,16,0.00
2013-4-2,54.0,46.5,40.0,40.0,33.3,28.0,91,62,43,30.24,30.08,10,3,19,0.26
2013-4-3,51.0,45.9,40.0,37.0,31.2,25.0,85,57,42,30.20,30.09,10,3,17,0.29
2013-4-4,50.0,44.9,41.0,45.0,41.1,30.0,96,88,46,30.10,29.96,5,2,11,0.25
2013-4-5,72.0,54.5,43.0,48.0,40.8,32.0,98,67,27,30.15,30.02,7,1,12,0.06
2013-4-6,77.0,60.4,43.0,46.0,41.1,33.0,94,56,22,30.08,29.89,10,3,23,0.00
2013-4-7,71.0,64.4,57.0,56.0,52.0,44.0,83,65,51,30.01,29.88,8,2,19,0.00
2013-4-8,81.0,69.5,61.0,60.0,57.0,53.0,82,66,45,29.96,29.83,14,4,22,0.00
2013-4-9,83.0,73.9,65.0,68.0,64.1,58.0,85,72,56,29.96,29.84,11,4,24,0.01
2013-4-10,85.0,77.6,72.0,67.0,65.7,62.0,83,68,50,29.92,29.65,14,6,24,0.07
2013-4-11,75.0,53.1,45.0,67.0,50.9,43.0,95,93,75,29.79,29.64,7,2,21,2.07
2013-4-12,70.0,54.5,40.0,49.0,42.9,38.0,97,70,39,29.98,29.79,9,2,20,0.03
2013-4-13,77.0,59.6,44.0,50.0,43.0,38.0,91,60,27,30.09,29.89,7,1,12,0.00
2013-4-14,70.0,61.6,52.0,57.0,52.0,47.0,86,72,52,29.90,29.72,15,4,25,0.00
2013-4-15,84.0,69.4,57.0,64.0,59.2,54.0,93,72,47,29.90,29.79,10,3,18,0.00
2013-4-16,86.0,77.1,70.0,72.0,68.9,63.0,88,77,58,30.02,29.88,11,3,20,0.00
2013-4-17,88.0,78.0,70.0,71.0,68.6,66.0,92,74,50,30.05,29.82,10,3,19,0.00
2013-4-18,80.0,71.0,47.0,69.0,62.1,43.0,98,75,55,29.85,29.59,12,6,25,1.79
2013-4-19,56.0,47.9,42.0,43.0,35.4,30.0,90,63,43,30.12,29.82,9,4,20,1.80
2013-4-20,70.0,54.6,37.0,46.0,37.7,33.0,96,60,27,30.24,30.12,5,1,11,0.00
2013-4-21,71.0,58.6,45.0,44.0,38.8,34.0,84,52,27,30.32,30.16,7,1,17,0.00
2013-4-22,78.0,61.8,44.0,52.0,46.1,41.0,92,60,35,30.18,29.99,8,2,18,0.00
2013-4-23,75.0,66.7,59.0,62.0,57.9,51.0,88,74,60,30.03,29.87,11,4,26,0.00
2013-4-24,69.0,50.9,43.0,64.0,45.2,40.0,94,82,56,30.27,29.84,13,4,20,1.35
2013-4-25,72.0,54.0,37.0,47.0,39.8,35.0,96,66,28,30.37,30.26,7,1,11,0.01
2013-4-26,67.0,55.9,49.0,52.0,46.6,41.0,90,73,42,30.39,30.19,7,1,14,0.10
2013-4-27,56.0,54.9,54.0,51.0,50.2,50.0,87,84,81,30.20,30.03,6,2,16,0.10
2013-4-29,83.0,75.9,60.0,58.0,55.9,54.0,86,52,39,29.99,29.85,6,2,11,0.00
2013-4-30,85.0,70.3,54.0,60.0,55.5,51.0,92,63,36,29.94,29.86,9,1,15,0.00
2013-5-1,80.0,69.1,60.0,68.0,61.7,56.0,91,78,58,30.02,29.91,10,1,16,0.01
2013-5-2,71.0,64.9,63.0,63.0,61.3,59.0,96,88,71,30.09,29.98,4,0,10,0.37
2013-5-3,64.0,49.1,39.0,63.0,47.8,37.0,96,94,88,29.98,29.87,6,2,13,2.12
2013-5-4,58.0,46.0,35.0,46.0,40.0,34.0,97,82,52,29.96,29.85,9,1,18,0.08
2013-5-5,62.0,51.9,45.0,50.0,46.2,43.0,96,82,51,29.91,29.85,9,2,15,0.50
2013-5-6,64.0,58.3,53.0,57.0,54.0,50.0,94,86,73,29.93,29.83,9,2,18,0.01
2013-5-7,78.0,64.9,51.0,61.0,56.1,49.0,97,76,49,29.99,29.91,5,0,12,0.00
2013-5-8,85.0,69.8,53.0,63.0,57.0,51.0,96,68,38,30.05,29.97,6,0,10,0.00
2013-5-9,83.0,71.0,58.0,64.0,60.4,56.0,95,72,48,30.05,29.93,10,2,23,0.00
2013-5-10,77.0,67.5,64.0,69.0,63.0,-99.9,97,90,72,29.94,29.84,8,1,24,1.45
2013-5-11,74.0,66.0,60.0,65.0,56.9,-99.9,96,76,47,30.05,29.90,6,2,12,0.09
2013-5-12,70.0,60.1,49.0,57.0,38.9,29.0,90,49,26,30.21,30.05,9,3,17,0.00
2013-5-13,78.0,62.6,44.0,54.0,46.7,42.0,95,62,30,30.25,30.10,7,1,13,0.00
2013-5-14,88.0,75.1,60.0,60.0,55.2,51.0,74,52,34,30.10,29.98,9,3,23,0.00
2013-5-15,87.0,77.0,66.0,58.0,54.3,47.0,68,47,30,30.09,29.92,9,3,24,0.00
2013-5-16,78.0,66.9,66.0,66.0,41.8,-99.9,93,71,55,29.98,29.87,7,1,14,0.02
2013-5-17,82.0,70.7,67.0,70.0,61.5,-99.9,95,83,63,29.92,29.85,8,2,13,0.13
2013-5-18,88.0,76.0,65.0,75.0,70.2,63.0,96,83,64,29.96,29.88,6,1,14,0.04
2013-5-19,90.0,80.9,74.0,74.0,69.7,65.0,90,71,47,29.95,29.84,10,3,20,0.00
2013-5-20,88.0,81.2,74.0,73.0,70.8,69.0,88,72,57,29.93,29.80,10,4,24,0.00
2013-5-21,81.0,71.1,65.0,73.0,67.7,63.0,97,89,72,29.98,29.76,11,2,24,2.08
2013-5-22,82.0,71.2,63.0,67.0,63.8,60.0,97,80,51,29.89,29.73,9,2,15,1.19
2013-5-23,85.0,74.5,63.0,65.0,61.9,58.0,94,67,46,30.09,29.88,7,2,14,0.00
2013-5-24,77.0,66.5,57.0,58.0,52.5,49.0,84,63,38,30.28,30.09,10,3,18,0.00
2013-5-25,82.0,67.9,51.0,60.0,53.3,49.0,94,64,34,30.28,30.12,5,0,12,0.00
2013-5-26,88.0,73.5,58.0,61.0,57.7,53.0,95,63,31,30.17,30.05,7,1,13,0.00
2013-5-27,87.0,76.9,64.0,70.0,62.9,59.0,88,64,43,30.07,29.93,11,3,21,0.00
2013-5-28,90.0,79.6,72.0,70.0,64.9,58.0,80,63,40,30.01,29.93,10,4,17,0.00
2013-5-29,90.0,79.5,68.0,69.0,64.7,59.0,78,61,39,30.01,29.90,10,4,18,0.00
2013-5-30,86.0,78.1,74.0,72.0,69.3,66.0,86,75,61,30.00,29.88,12,4,24,0.00
2013-5-31,86.0,77.4,66.0,75.0,71.6,64.0,96,83,67,29.99,29.81,12,2,23,2.00
2013-6-1,82.0,73.8,68.0,74.0,70.0,65.0,96,88,66,29.96,29.79,10,2,31,0.36
2013-6-2,81.0,72.6,67.0,70.0,65.6,61.0,97,80,58,29.95,29.88,6,1,13,0.02
2013-6-3,84.0,71.9,61.0,65.0,61.9,59.0,95,73,45,30.00,29.90,6,1,10,0.01
2013-6-4,89.0,75.4,61.0,67.0,62.8,58.0,92,67,44,29.99,29.88,4,0,8,0.00
2013-6-5,90.0,77.9,68.0,75.0,69.3,64.0,91,76,57,29.93,29.77,8,1,18,0.05
2013-6-6,85.0,76.2,69.0,69.0,67.6,66.0,94,76,53,29.82,29.73,5,1,12,0.01
2013-6-7,83.0,74.7,66.0,67.0,61.3,54.0,79,65,39,29.87,29.75,6,2,12,0.00
2013-6-8,87.0,73.8,60.0,64.0,59.3,53.0,94,65,34,29.96,29.85,4,0,8,0.00
2013-6-9,90.0,75.8,66.0,71.0,66.8,60.0,91,75,49,29.96,29.78,10,2,18,0.00
2013-6-10,93.0,81.0,70.0,72.0,68.6,65.0,96,70,40,29.90,29.84,9,2,17,0.01
2013-6-11,99.0,85.7,77.0,75.0,71.6,69.0,81,65,42,30.00,29.89,7,2,13,0.01
2013-6-12,98.0,87.6,75.0,77.0,73.7,71.0,89,65,45,30.03,29.88,8,2,18,0.00
2013-6-13,95.0,85.3,76.0,76.0,71.4,65.0,77,64,42,29.93,29.85,10,3,20,0.00
2013-6-14,89.0,78.3,67.0,67.0,62.5,57.0,93,62,39,30.02,29.92,7,1,16,0.00
2013-6-15,92.0,79.0,64.0,69.0,64.7,61.0,95,66,40,30.04,29.95,6,1,11,0.00
2013-6-16,91.0,79.9,70.0,76.0,70.1,67.0,93,74,53,30.01,29.91,6,0,12,0.00
2013-6-17,84.0,76.9,72.0,76.0,71.9,69.0,96,85,69,29.96,29.82,6,1,15,1.51
2013-6-18,87.0,75.7,69.0,72.0,69.7,68.0,97,83,55,29.95,29.81,5,1,10,1.44
2013-6-19,94.0,77.6,67.0,74.0,68.9,66.0,96,78,42,30.02,29.92,13,0,23,0.65
2013-6-20,95.0,79.1,68.0,73.0,68.8,67.0,97,75,40,30.10,30.01,3,0,9,0.66
2013-6-22,93.0,88.3,78.0,72.0,70.5,68.0,79,57,44,30.11,29.98,7,2,15,0.00
2013-6-23,94.0,82.0,73.0,74.0,69.7,66.0,86,68,44,30.08,29.98,7,1,12,0.00
2013-6-24,96.0,84.3,74.0,75.0,72.7,70.0,89,70,46,30.10,29.97,6,1,12,0.00
2013-6-25,94.0,83.5,76.0,76.0,72.8,70.0,88,72,48,30.05,29.90,8,2,16,0.00
2013-6-26,94.0,85.3,77.0,75.0,71.8,70.0,85,66,46,29.96,29.82,10,2,21,0.00
2013-6-27,100.0,86.7,78.0,79.0,74.7,69.0,80,69,48,29.89,29.78,7,2,18,0.00
2013-6-28,91.0,80.8,72.0,76.0,72.0,69.0,95,76,51,29.88,29.69,15,1,31,0.64
2013-6-29,91.0,80.7,68.0,70.0,64.5,58.0,94,61,35,29.74,29.66,7,2,19,0.05
2013-6-30,81.0,73.4,67.0,66.0,64.2,62.0,86,74,58,29.80,29.69,8,2,17,0.00
2013-7-1,81.0,72.6,67.0,67.0,64.7,61.0,93,77,58,29.91,29.79,8,2,16,0.00
2013-7-2,87.0,75.1,64.0,66.0,62.6,59.0,93,68,45,30.01,29.89,8,1,12,0.00
2013-7-3,87.0,74.7,64.0,68.0,64.1,62.0,94,72,44,30.07,29.98,5,0,10,0.00
2013-7-4,90.0,77.2,64.0,72.0,67.8,62.0,95,75,46,30.02,29.92,5,0,12,0.00
2013-7-5,88.0,75.2,67.0,73.0,68.7,64.0,96,82,54,30.04,29.94,8,1,20,0.74
2013-7-6,90.0,75.9,67.0,72.0,68.6,64.0,95,81,49,30.04,29.93,6,1,16,0.74
2013-7-7,80.0,74.7,72.0,74.0,71.1,70.0,94,88,80,30.06,30.00,4,0,8,0.00
2013-7-8,94.0,83.6,72.0,77.0,71.7,-99.9,95,72,49,30.11,30.03,5,1,11,0.00
2013-7-9,95.0,85.9,76.0,75.0,73.4,71.0,91,68,48,30.10,29.97,6,1,12,0.00
2013-7-10,97.0,86.8,81.0,78.0,71.3,-99.9,76,63,49,30.02,29.85,7,1,12,0.00
2013-7-11,95.0,84.5,76.0,77.0,71.8,65.0,89,67,47,29.94,29.87,8,2,15,0.00
2013-7-12,90.0,79.1,67.0,66.0,63.3,60.0,80,60,43,30.00,29.92,9,2,16,0.00
2013-7-13,89.0,77.1,63.0,65.0,62.2,59.0,92,63,40,30.01,29.92,8,1,13,0.00
2013-7-14,90.0,77.1,67.0,73.0,68.8,64.0,92,77,56,30.05,29.94,8,1,19,0.00
2013-7-15,92.0,79.9,73.0,76.0,73.0,71.0,95,81,56,30.16,30.04,6,1,18,0.00
2013-7-16,94.0,83.0,73.0,75.0,72.5,71.0,94,73,49,30.23,30.15,7,1,14,0.00
2013-7-17,99.0,85.5,73.0,77.0,73.0,70.0,95,69,42,30.27,30.12,7,0,13,0.00
2013-7-18,94.0,79.7,72.0,79.0,74.5,71.0,97,85,56,30.16,30.00,11,0,17,1.47
2013-7-19,92.0,80.3,71.0,76.0,72.3,70.0,98,79,54,30.05,29.91,6,1,12,0.23
2013-7-20,94.0,84.0,75.0,77.0,73.3,71.0,90,72,51,29.95,29.81,6,1,13,0.00
2013-7-21,94.0,84.6,76.0,76.0,72.4,69.0,88,68,48,29.94,29.85,8,2,17,0.00
2013-7-22,88.0,79.9,72.0,77.0,73.4,70.0,96,81,64,29.93,29.83,10,2,18,2.21
2013-7-23,92.0,80.4,70.0,78.0,73.8,68.0,95,82,59,29.98,29.80,7,1,17,0.41
2013-7-24,87.0,80.4,75.0,76.0,73.2,70.0,91,79,62,29.94,29.82,8,1,12,0.08
2013-7-25,84.0,74.6,66.0,69.0,64.0,61.0,90,71,47,30.04,29.93,7,1,16,0.00
2013-7-26,85.0,74.5,63.0,69.0,65.7,61.0,96,76,49,30.04,29.94,3,0,10,0.00
2013-7-27,88.0,77.7,70.0,70.0,68.6,65.0,93,75,51,29.98,29.86,4,0,10,0.00
2013-7-28,84.0,73.7,67.0,68.0,64.3,62.0,88,73,49,30.04,29.92,5,0,11,0.00
2013-7-29,91.0,76.8,66.0,70.0,65.9,61.0,90,71,48,30.12,30.02,6,1,11,0.00
2013-7-30,86.0,79.4,74.0,75.0,70.8,67.0,87,76,63,30.10,29.98,6,1,12,0.00
2013-7-31,92.0,80.2,75.0,78.0,74.3,72.0,94,83,62,30.03,29.90,7,1,12,0.13
2013-8-1,88.0,79.3,73.0,74.0,71.6,68.0,96,79,55,30.02,29.93,7,1,11,0.05
2013-8-2,93.0,80.0,67.0,73.0,68.9,66.0,96,72,43,30.00,29.92,6,0,12,0.00
2013-8-3,83.0,78.5,74.0,75.0,72.4,70.0,92,82,72,30.04,29.90,6,1,14,0.04
2013-8-4,92.0,80.4,71.0,76.0,72.2,69.0,96,78,55,30.09,30.01,7,0,11,0.01
2013-8-5,83.0,76.6,72.0,77.0,72.1,68.0,96,86,72,30.03,29.88,4,0,10,0.64
2013-8-6,87.0,80.2,75.0,78.0,75.2,73.0,96,85,71,29.93,29.84,6,1,12,0.01
2013-8-7,95.0,84.5,77.0,79.0,75.5,72.0,89,76,49,29.93,29.83,4,0,11,0.01
2013-8-8,99.0,86.5,78.0,78.0,76.3,73.0,94,74,47,29.92,29.83,4,0,10,0.00
2013-8-9,97.0,86.8,77.0,79.0,76.0,73.0,91,72,47,29.98,29.89,5,1,13,0.00
2013-8-10,92.0,82.2,77.0,77.0,74.1,71.0,89,77,53,30.11,29.97,6,1,16,0.02
2013-8-11,87.0,78.4,74.0,79.0,74.9,72.0,96,89,75,30.11,30.01,7,0,13,0.75
2013-8-12,93.0,82.2,73.0,78.0,75.3,71.0,94,80,61,30.03,29.90,8,1,14,0.13
2013-8-13,86.0,77.0,72.0,75.0,70.1,-99.9,96,83,66,29.99,29.90,4,1,10,0.14
2013-8-14,79.0,72.4,68.0,68.0,56.7,-99.9,85,68,49,30.06,29.95,10,3,14,0.01
2013-8-15,83.0,63.8,59.0,62.0,36.3,-99.9,89,57,40,30.06,29.98,5,1,11,0.00
2013-8-16,85.0,70.4,62.0,69.0,61.1,-99.9,92,78,55,30.03,29.96,5,0,9,0.00
2013-8-17,80.0,71.0,66.0,69.0,66.7,64.0,95,87,68,30.06,30.01,5,0,8,0.00
2013-8-21,93.0,85.3,78.0,76.0,74.1,72.0,87,71,51,30.07,30.01,1,0,4,0.00
2013-8-22,96.0,83.2,74.0,77.0,74.0,72.0,95,76,51,30.10,29.98,3,0,7,0.00
2013-8-23,95.0,82.8,71.0,76.0,72.4,69.0,96,73,44,30.05,29.96,5,0,12,0.00
2013-8-24,95.0,82.2,73.0,77.0,71.7,-99.9,95,74,52,30.11,30.01,5,0,12,0.00
2013-8-25,89.0,80.3,75.0,76.0,73.8,72.0,91,81,62,30.23,30.11,5,1,10,0.00
2013-8-26,93.0,81.4,71.0,73.0,70.4,68.0,94,72,45,30.23,30.09,4,0,11,0.00
2013-8-27,93.0,78.0,68.0,69.0,66.7,65.0,94,71,43,30.13,30.04,5,1,10,0.00
2013-8-28,96.0,88.8,76.0,72.0,68.9,66.0,85,54,39,30.06,29.98,3,1,8,0.00
2013-8-29,96.0,83.1,70.0,76.0,71.0,68.0,94,70,44,30.05,29.94,5,1,11,0.00
2013-8-30,99.0,84.6,73.0,77.0,72.8,70.0,95,71,41,29.99,29.86,5,0,9,0.00
2013-8-31,99.0,85.7,75.0,74.0,70.3,-99.9,91,65,42,29.90,29.79,7,1,11,0.00
2013-9-1,97.0,84.0,77.0,75.0,72.5,70.0,86,69,46,29.88,29.78,8,2,18,0.09
2013-9-2,92.0,81.4,76.0,77.0,74.6,72.0,93,81,55,29.91,29.79,8,1,16,0.09
2013-9-3,89.0,78.6,69.0,74.0,67.1,61.0,95,71,43,30.00,29.88,5,1,13,0.00
2013-9-4,89.0,76.0,64.0,69.0,65.0,62.0,96,72,47,30.09,29.98,5,1,13,0.00
2013-9-5,90.0,75.6,64.0,67.0,64.2,62.0,93,73,47,30.10,30.06,0,0,2,0.00
2013-9-6,94.0,85.0,73.0,68.0,66.8,64.0,82,57,38,30.10,30.00,4,0,7,0.00
2013-9-7,98.0,79.9,66.0,72.0,65.6,-99.9,95,68,35,30.05,29.93,4,0,7,0.00
2013-9-8,100.0,81.0,69.0,75.0,70.5,66.0,95,74,35,29.97,29.85,3,0,6,0.00
2013-9-9,94.0,82.6,74.0,77.0,73.0,70.0,92,74,49,30.01,29.91,3,0,11,0.09
2013-9-10,76.0,74.2,72.0,73.0,71.7,70.0,94,92,86,30.05,29.99,4,0,7,0.10
2013-9-11,95.0,84.6,73.0,76.0,73.0,71.0,96,71,47,30.13,30.03,6,0,8,0.00
2013-9-12,95.0,83.3,71.0,75.0,71.9,69.0,96,71,47,30.04,29.90,7,1,9,0.00
2013-9-13,84.0,74.7,66.0,71.0,61.2,55.0,88,65,39,29.99,29.92,8,2,12,0.00
2013-9-14,77.0,66.1,57.0,56.0,51.2,-99.9,85,63,39,30.08,29.98,7,1,11,0.00
2013-9-15,90.0,67.6,53.0,62.0,55.7,51.0,95,72,29,30.06,30.01,4,0,6,0.00
2013-9-16,90.0,74.9,60.0,69.0,61.3,54.0,95,67,31,30.12,30.05,7,1,13,0.00
2013-9-17,94.0,78.6,66.0,69.0,66.3,64.0,94,69,40,30.13,30.00,4,0,6,0.00
2013-9-18,76.0,73.4,71.0,70.0,68.5,67.0,89,85,77,30.06,30.01,7,1,10,0.00
2013-9-19,93.0,81.0,70.0,73.0,68.9,66.0,94,69,43,30.06,29.92,7,1,14,0.00
2013-9-20,79.0,74.0,70.0,74.0,70.0,67.0,97,88,66,29.96,29.80,6,0,9,2.40
2013-9-21,70.0,64.1,59.0,69.0,58.4,-99.9,97,90,86,29.87,29.78,5,1,9,2.49
2013-9-22,79.0,66.1,53.0,58.0,54.7,52.0,96,70,43,29.93,29.84,10,1,12,0.00
2013-9-23,84.0,69.3,55.0,65.0,58.4,53.0,93,71,42,29.94,29.83,7,1,10,0.00
2013-9-24,80.0,70.2,64.0,72.0,67.1,61.0,96,90,77,29.88,29.77,5,0,8,0.10
2013-9-25,85.0,75.5,69.0,72.0,68.4,65.0,97,80,53,29.81,29.74,5,1,8,0.10
2013-9-26,89.0,75.1,64.0,71.0,66.7,63.0,97,77,49,29.96,29.81,4,0,12,0.00
2013-9-27,89.0,74.3,63.0,69.0,65.0,62.0,96,76,46,30.06,29.96,6,0,8,0.00
2013-9-28,85.0,73.5,63.0,63.0,60.0,-99.9,90,66,46,30.10,29.98,7,1,11,0.00
2013-9-29,71.0,67.5,65.0,66.0,63.1,60.0,96,86,69,30.02,29.93,4,0,8,0.07
2013-9-30,76.0,70.2,66.0,70.0,67.5,65.0,97,91,81,29.95,29.89,4,0,9,0.02
2013-10-1,79.0,75.2,74.0,72.0,70.6,70.0,88,86,80,30.02,29.98,0,0,4,0.01
2013-10-2,86.0,75.8,69.0,71.0,68.3,66.0,96,79,54,30.08,29.99,4,0,9,0.01
2013-10-3,88.0,77.6,66.0,73.0,69.1,64.0,95,76,55,30.02,29.92,5,1,11,0.00
2013-10-4,85.0,76.5,70.0,74.0,71.2,68.0,95,84,68,30.03,29.94,8,1,10,0.00
2013-10-5,76.0,74.5,73.0,72.0,71.5,70.0,93,90,87,29.99,29.96,2,0,11,0.00
2013-10-7,69.0,59.7,48.0,53.0,50.3,46.0,95,73,53,30.09,29.96,8,2,12,0.00
2013-10-8,75.0,61.0,48.0,56.0,51.1,46.0,95,73,45,30.13,30.03,7,1,12,0.00
2013-10-9,79.0,69.8,54.0,66.0,62.2,52.0,94,78,61,30.11,30.04,7,1,11,0.00
2013-10-10,82.0,67.9,58.0,66.0,61.0,57.0,97,81,50,30.13,29.98,3,0,6,0.00
2013-10-11,85.0,68.6,57.0,65.0,60.4,56.0,97,78,45,30.03,29.93,5,1,7,0.01
2013-10-12,76.0,65.7,59.0,69.0,61.6,-99.9,97,89,78,30.10,29.96,4,0,10,0.20
2013-10-13,81.0,69.2,62.0,67.0,62.7,55.0,97,81,59,30.23,30.10,7,1,10,0.01
2013-10-14,83.0,68.1,55.0,66.0,59.6,52.0,91,76,49,30.20,30.03,4,0,7,0.01
2013-10-15,73.0,69.5,67.0,67.0,64.9,63.0,95,85,75,30.04,29.92,7,2,11,0.43
2013-10-16,68.0,60.9,56.0,67.0,58.9,54.0,96,93,84,30.01,29.92,7,1,11,0.88
2013-10-17,68.0,59.3,50.0,58.0,53.8,48.0,96,83,52,30.01,29.93,5,0,9,0.02
2013-10-18,73.0,58.9,45.0,57.0,50.7,44.0,97,78,45,30.05,29.92,2,0,9,0.00
2013-10-19,60.0,52.6,43.0,56.0,46.8,-99.9,95,83,60,30.05,29.89,7,2,13,0.02
2013-10-20,58.0,43.1,39.0,47.0,40.7,38.0,96,92,61,30.09,30.03,2,0,7,0.01
2013-10-22,69.0,61.0,52.0,49.0,45.5,41.0,91,62,38,30.02,29.87,1,0,5,0.00
2013-10-23,60.0,50.8,44.0,44.0,42.5,40.0,91,75,47,30.10,30.06,0,0,0,0.00
2013-10-24,63.0,51.6,43.0,49.0,42.5,37.0,95,73,49,30.35,30.08,12,2,16,0.00
2013-10-25,55.0,46.6,35.0,38.0,32.6,28.0,90,61,37,30.50,30.30,8,1,12,0.00
2013-10-26,65.0,47.9,36.0,45.0,37.6,34.0,94,72,43,30.30,30.10,11,1,12,0.00
2013-10-27,59.0,58.6,57.0,55.0,54.1,54.0,90,86,85,30.08,30.06,0,0,4,0.00
2013-10-28,70.0,59.7,57.0,61.0,51.9,-99.9,93,86,72,30.19,30.14,0,0,0,0.00
2013-10-29,75.0,64.3,53.0,67.0,60.0,51.0,97,87,71,30.22,30.08,8,1,11,0.00
2013-10-30,76.0,69.2,62.0,67.0,63.7,60.0,94,83,72,30.15,29.93,8,2,12,0.00
2013-10-31,71.0,68.0,63.0,68.0,64.8,52.0,95,89,63,29.93,29.54,11,5,19,1.39
2013-11-1,74.0,61.2,50.0,54.0,50.8,46.0,96,72,39,29.88,29.74,5,1,11,0.01
2013-11-2,61.0,51.7,43.0,52.0,42.8,-99.9,93,76,51,30.18,29.87,9,2,18,0.02
2013-11-3,63.0,47.9,37.0,45.0,40.1,35.0,96,78,43,30.29,30.12,4,0,8,0.01
2013-11-4,64.0,52.4,42.0,51.0,45.3,40.0,93,78,53,30.26,30.16,7,1,9,0.01
2013-11-5,72.0,61.6,54.0,54.0,49.8,45.0,82,66,52,30.27,30.11,9,2,14,0.00
2013-11-6,62.0,57.9,46.0,61.0,52.0,41.0,95,81,68,30.22,30.01,12,4,17,0.25
2013-11-7,57.0,46.8,39.0,41.0,37.1,33.0,92,72,41,30.39,30.23,10,3,13,0.11
2013-11-8,65.0,48.3,34.0,43.0,37.4,32.0,96,71,32,30.37,30.19,1,0,3,0.00
2013-11-9,61.0,50.4,41.0,47.0,40.6,-99.9,93,73,50,30.27,30.16,3,0,8,0.00
2013-11-10,69.0,54.2,43.0,51.0,44.0,40.0,95,72,38,30.33,30.23,7,1,12,0.00
2013-11-11,72.0,53.4,38.0,50.0,42.9,36.0,95,73,34,30.28,30.13,2,0,5,0.00
2013-11-12,53.0,40.8,31.0,50.0,31.3,23.0,93,70,46,30.65,30.19,15,7,21,0.00
2013-11-13,45.0,32.3,27.0,30.0,24.9,22.0,88,75,50,30.69,30.43,8,1,9,0.00
2013-11-14,58.0,41.9,26.0,30.0,25.5,22.0,93,59,25,30.42,30.14,7,1,13,0.00
2013-11-15,61.0,50.3,41.0,53.0,45.0,30.0,94,82,64,30.14,29.99,7,1,9,0.07
2013-11-16,69.0,60.3,53.0,65.0,56.3,-99.9,96,89,86,30.02,29.84,14,2,20,0.02
2013-11-17,77.0,70.4,63.0,71.0,64.8,42.0,96,83,43,29.96,29.68,12,4,17,0.85
2013-11-18,64.0,54.5,43.0,48.0,37.5,31.0,90,54,31,30.23,29.97,9,1,14,0.01
2013-11-19,52.0,45.4,37.0,33.0,29.5,25.0,80,55,36,30.28,30.14,7,1,12,0.00
2013-11-20,65.0,48.3,33.0,43.0,36.2,30.0,92,67,38,30.16,30.04,7,1,13,0.00
2013-11-21,68.0,58.7,52.0,60.0,52.3,42.0,95,80,67,30.17,30.08,8,2,15,0.01
2013-11-22,60.0,53.5,44.0,59.0,51.3,40.0,98,92,86,30.37,30.12,14,4,17,0.44
2013-11-23,46.0,40.5,31.0,40.0,29.5,-99.9,90,68,39,30.55,30.34,17,7,23,0.01
2013-11-24,37.0,30.3,23.0,20.0,17.4,15.0,72,59,43,30.63,30.41,14,5,17,0.00
2013-11-25,36.0,34.8,32.0,34.0,27.5,18.0,94,76,52,30.42,30.13,5,0,8,0.16
2013-11-26,41.0,37.2,35.0,37.0,33.7,26.0,95,87,67,30.11,29.93,13,4,17,0.05
2013-11-27,35.0,29.5,23.0,26.0,18.5,15.0,86,64,51,30.38,30.11,11,4,18,0.00
2013-11-28,47.0,32.8,21.0,27.0,21.9,18.0,91,67,37,30.46,30.36,6,1,9,0.00
2013-11-29,58.0,40.2,27.0,36.0,30.0,25.0,93,71,37,30.54,30.40,3,0,8,0.00
2013-11-30,58.0,43.9,28.0,34.0,28.3,-99.9,94,61,34,30.41,30.19,6,1,12,0.00
2013-12-1,57.0,50.7,44.0,45.0,37.8,33.0,70,61,54,30.19,29.91,3,1,12,0.00
2013-12-2,61.0,55.5,49.0,54.0,49.4,43.0,92,80,66,29.91,29.69,6,0,6,0.00
2013-12-3,60.0,54.3,46.0,58.0,52.7,44.0,97,94,90,29.74,29.65,5,0,7,0.00
2013-12-4,75.0,68.1,59.0,65.0,62.6,58.0,96,83,68,29.79,29.65,13,3,17,0.00
2013-12-5,70.0,49.8,34.0,66.0,46.1,32.0,95,88,77,30.13,29.79,13,5,16,0.06
2013-12-6,34.0,31.1,26.0,33.0,29.2,24.0,100,93,92,30.41,30.04,11,2,13,0.57
2013-12-7,29.0,25.3,22.0,27.0,21.5,-99.9,93,89,88,30.55,30.32,0,0,0,0.01
2013-12-8,35.0,32.9,29.0,34.0,31.1,27.0,100,94,93,30.33,30.05,3,0,6,0.15
2013-12-9,34.0,32.3,31.0,31.0,29.1,28.0,95,88,83,30.28,30.14,8,3,11,0.02
2013-12-10,40.0,32.1,26.0,30.0,25.9,21.0,92,78,60,30.42,30.19,7,2,10,0.02
2013-12-11,46.0,33.2,23.0,35.0,27.2,21.0,95,80,51,30.56,30.37,6,1,8,0.01
2013-12-12,47.0,32.6,22.0,25.0,19.8,15.0,84,63,30,30.60,30.37,5,1,10,0.01
2013-12-13,49.0,37.0,25.0,38.0,26.4,22.0,93,70,36,30.37,29.91,5,1,11,0.55
2013-12-14,45.0,40.6,36.0,44.0,36.4,-99.9,96,88,81,30.12,29.77,9,4,19,1.25
2013-12-15,41.0,35.5,33.0,32.0,29.7,28.0,90,80,68,30.26,30.12,7,2,14,0.01
2013-12-16,59.0,45.7,33.0,40.0,35.9,30.0,91,70,47,30.19,30.09,8,2,18,0.00
2013-12-17,60.0,48.2,35.0,41.0,37.3,32.0,89,67,48,30.27,30.13,6,2,17,0.00
2013-12-18,60.0,45.1,31.0,39.0,33.0,29.0,94,67,35,30.33,30.10,6,2,13,0.00
2013-12-19,61.0,58.1,50.0,53.0,49.9,39.0,76,75,65,30.12,29.91,8,4,10,0.00
2013-12-20,69.0,64.6,61.0,65.0,59.9,54.0,95,85,76,29.95,29.78,11,4,17,0.49
2013-12-21,75.0,65.7,54.0,67.0,60.3,-99.9,95,85,71,29.78,29.44,14,4,18,0.26
2013-12-22,56.0,49.1,38.0,53.0,45.9,32.0,96,89,79,30.22,29.69,9,2,16,0.08
2013-12-23,38.0,34.4,28.0,32.0,27.3,25.0,89,75,64,30.49,30.22,9,4,18,0.00
2013-12-24,37.0,29.6,25.0,27.0,20.4,16.0,91,70,45,30.60,30.40,8,2,13,0.00
2013-12-25,51.0,35.9,22.0,34.0,24.9,19.0,91,67,39,30.40,30.28,4,0,7,0.00
2013-12-26,49.0,37.7,29.0,32.0,28.9,26.0,93,73,43,30.42,30.32,6,0,13,0.00
2013-12-27,58.0,39.7,27.0,34.0,29.5,25.0,94,71,33,30.45,30.34,1,0,7,0.00
2013-12-28,48.0,39.6,33.0,41.0,33.5,-99.9,94,82,63,30.33,29.95,4,0,5,0.04
2013-12-29,56.0,45.6,35.0,44.0,39.5,29.0,96,80,60,30.18,29.94,9,2,17,0.11
2013-12-30,35.0,31.7,30.0,30.0,25.6,24.0,82,78,76,30.34,30.18,8,2,13,0.00
2013-12-31,50.0,35.7,24.0,33.0,26.9,22.0,94,73,44,30.45,30.30,3,0,6,0.00
2014-1-1,55.0,42.2,27.0,44.0,32.8,25.0,93,72,46,30.28,29.92,9,1,12,0.02
2014-1-2,50.0,35.2,24.0,48.0,28.2,14.0,93,76,63,30.43,29.88,12,6,22,0.18